createdAt,value
2022-10-04T00:02:34.107Z,95.80
2022-10-04T00:05:26.616Z,96.80
2022-10-04T00:08:28.584Z,96.20
2022-10-04T00:11:24.609Z,96.70
2022-10-04T00:14:20.924Z,96.20
2022-10-04T00:17:13.756Z,96.40
2022-10-04T00:20:04.297Z,96.00
2022-10-04T00:23:30.883Z,95.70
2022-10-04T00:27:13.451Z,96.90
2022-10-04T00:30:23.896Z,96.90
2022-10-04T00:33:36.709Z,96.80
2022-10-04T00:36:46.829Z,95.70
2022-10-04T00:39:44.809Z,96.70
2022-10-04T00:42:57.557Z,96.60
2022-10-04T00:45:52.779Z,97.10
2022-10-04T00:48:47.457Z,96.50
2022-10-04T00:51:42.223Z,96.60
2022-10-04T00:54:38.706Z,96.70
2022-10-04T00:57:33.574Z,96.80
2022-10-04T01:00:23.350Z,96.90
2022-10-04T01:03:18.244Z,96.50
2022-10-04T01:06:10.829Z,96.80
2022-10-04T01:09:08.619Z,96.70
2022-10-04T01:12:05.775Z,97.10
2022-10-04T01:15:06.364Z,97.10
2022-10-04T01:18:14.610Z,97.30
2022-10-04T01:21:09.457Z,97.60
2022-10-04T01:24:23.531Z,96.90
2022-10-04T01:27:39.005Z,97.40
2022-10-04T01:30:28.517Z,97.50
2022-10-04T01:33:17.908Z,96.40
2022-10-04T01:36:07.913Z,96.40
2022-10-04T01:38:57.581Z,96.50
2022-10-04T01:41:56.714Z,96.50
2022-10-04T01:44:51.339Z,97.00
2022-10-04T01:47:47.330Z,96.70
2022-10-04T01:50:41.201Z,97.10
2022-10-04T01:53:32.995Z,97.00
2022-10-04T01:56:28.977Z,96.80
2022-10-04T01:59:25.635Z,97.00
2022-10-04T02:02:26.865Z,97.30
2022-10-04T02:05:25.950Z,97.40
2022-10-04T02:08:18.541Z,97.20
2022-10-04T02:11:08.876Z,96.90
2022-10-04T02:14:01.239Z,96.90
2022-10-04T02:16:53.971Z,96.90
2022-10-04T02:19:45.066Z,97.20
2022-10-04T02:22:34.509Z,96.90
2022-10-04T02:25:24.634Z,97.20
2022-10-04T02:28:18.785Z,97.00
2022-10-04T02:31:27.108Z,97.10
2022-10-04T02:34:20.144Z,97.00
2022-10-04T02:37:10.161Z,97.40
2022-10-04T02:40:07.507Z,97.10
2022-10-04T02:43:01.760Z,97.40
2022-10-04T02:45:56.493Z,97.50
2022-10-04T02:48:49.451Z,97.30
2022-10-04T02:51:46.745Z,97.50
2022-10-04T02:54:42.614Z,97.60
2022-10-04T02:57:35.037Z,97.60
2022-10-04T03:00:28.094Z,97.40
2022-10-04T03:03:24.184Z,97.40
2022-10-04T03:06:18.082Z,97.50
2022-10-04T03:09:09.272Z,97.60
2022-10-04T03:11:59.133Z,97.50
2022-10-04T03:14:48.529Z,97.30
2022-10-04T03:17:38.130Z,97.30
2022-10-04T03:20:27.927Z,97.40
2022-10-04T03:23:20.899Z,97.50
2022-10-04T03:26:25.561Z,97.70
2022-10-04T03:29:17.899Z,98.40
2022-10-04T03:32:07.872Z,97.70
2022-10-04T03:34:59.882Z,97.70
2022-10-04T03:37:49.428Z,98.10
2022-10-04T03:40:42.531Z,97.90
2022-10-04T03:43:38.379Z,98.20
2022-10-04T03:46:28.907Z,98.30
2022-10-04T03:49:27.296Z,98.00
2022-10-04T03:52:23.176Z,98.20
2022-10-04T03:55:16.867Z,98.40
2022-10-04T03:58:07.071Z,98.10
2022-10-04T04:01:11.850Z,97.80
2022-10-04T04:04:08.230Z,98.40
2022-10-04T04:07:04.348Z,98.00
2022-10-04T04:10:00.977Z,98.50
2022-10-04T04:12:56.223Z,98.10
2022-10-04T04:15:45.692Z,98.70
2022-10-04T04:18:40.569Z,98.20
2022-10-04T04:21:30.586Z,98.50
2022-10-04T04:24:26.010Z,98.20
2022-10-04T04:27:19.250Z,98.70
2022-10-04T04:30:16.992Z,98.70
2022-10-04T04:33:16.653Z,98.50
2022-10-04T04:36:17.081Z,98.70
2022-10-04T04:39:31.092Z,98.60
2022-10-04T04:42:27.556Z,98.40
2022-10-04T04:45:21.052Z,98.10
2022-10-04T04:48:16.725Z,98.10
2022-10-04T04:51:06.708Z,98.50
2022-10-04T04:53:58.346Z,98.10
2022-10-04T04:56:50.557Z,98.60
2022-10-04T04:59:39.977Z,98.70
2022-10-04T05:02:35.589Z,98.50
2022-10-04T05:05:28.289Z,98.60
2022-10-04T05:08:22.574Z,98.70
2022-10-04T05:11:17.113Z,99.00
2022-10-04T05:14:10.278Z,99.00
2022-10-04T05:17:00.246Z,98.90
2022-10-04T05:19:50.106Z,98.80
2022-10-04T05:22:42.986Z,98.80
2022-10-04T05:25:34.867Z,99.00
2022-10-04T05:28:25.684Z,99.10
2022-10-04T05:31:42.403Z,99.20
2022-10-04T05:34:40.013Z,99.50
2022-10-04T05:37:48.740Z,98.90
2022-10-04T05:40:47.122Z,99.60
2022-10-04T05:43:46.556Z,99.10
2022-10-04T05:46:41.954Z,98.90
2022-10-04T05:49:44.035Z,98.80
2022-10-04T05:52:37.285Z,99.20
2022-10-04T05:55:30.272Z,99.40
2022-10-04T05:58:45.168Z,99.80
2022-10-04T06:01:45.725Z,99.90
2022-10-04T06:04:57.011Z,99.90
2022-10-04T06:07:56.816Z,99.90
2022-10-04T06:11:00.928Z,99.90
2022-10-04T06:14:35.449Z,99.90
2022-10-04T06:17:56.301Z,99.90
2022-10-04T06:21:21.897Z,99.90
2022-10-04T06:24:17.239Z,99.90
2022-10-04T06:27:15.793Z,99.90
2022-10-04T06:30:10.999Z,99.90
2022-10-04T06:33:20.366Z,99.90
2022-10-04T06:36:34.522Z,99.90
2022-10-04T06:40:03.347Z,99.90
2022-10-04T06:43:15.417Z,99.90
2022-10-04T06:46:13.246Z,99.90
2022-10-04T06:49:28.778Z,99.90
2022-10-04T06:52:39.841Z,99.90
2022-10-04T06:55:55.061Z,99.90
2022-10-04T06:59:11.167Z,99.90
2022-10-04T07:02:07.991Z,99.90
2022-10-04T07:05:08.641Z,99.90
2022-10-04T07:08:08.555Z,99.90
2022-10-04T07:11:00.898Z,99.90
2022-10-04T07:13:57.783Z,99.90
2022-10-04T07:16:51.312Z,99.90
2022-10-04T07:19:47.397Z,99.90
2022-10-04T07:22:44.179Z,99.90
2022-10-04T07:25:38.837Z,99.90
2022-10-04T07:28:50.763Z,99.90
2022-10-04T07:31:41.431Z,97.70
2022-10-04T07:34:33.096Z,96.00
2022-10-04T07:37:25.383Z,94.40
2022-10-04T07:40:24.207Z,93.20
2022-10-04T07:43:23.514Z,92.10
2022-10-04T07:46:25.571Z,92.30
2022-10-04T07:49:17.217Z,93.10
2022-10-04T07:52:49.323Z,94.10
2022-10-04T07:55:51.520Z,92.30
2022-10-04T07:58:53.479Z,91.50
2022-10-04T08:01:49.919Z,90.90
2022-10-04T08:04:48.381Z,90.20
2022-10-04T08:08:00.209Z,89.10
2022-10-04T08:11:03.817Z,87.90
2022-10-04T08:14:03.183Z,87.70
2022-10-04T08:17:11.847Z,87.60
2022-10-04T08:20:24.637Z,86.30
2022-10-04T08:23:42.323Z,85.80
2022-10-04T08:26:54.343Z,85.60
2022-10-04T08:30:03.274Z,85.70
2022-10-04T08:33:06.394Z,86.60
2022-10-04T08:36:11.734Z,88.30
2022-10-04T08:39:02.573Z,90.70
2022-10-04T08:42:20.527Z,92.60
2022-10-04T08:46:16.070Z,92.00
2022-10-04T08:49:55.291Z,92.00
2022-10-04T08:53:11.028Z,91.30
2022-10-04T08:56:22.716Z,90.10
2022-10-04T09:00:06.059Z,87.30
2022-10-04T09:03:37.428Z,84.80
2022-10-04T09:06:45.211Z,83.10
2022-10-04T09:10:39.308Z,85.80
2022-10-04T09:13:55.861Z,86.60
2022-10-04T09:16:48.084Z,88.10
2022-10-04T09:20:26.355Z,88.50
2022-10-04T09:23:39.547Z,86.20
2022-10-04T09:26:43.462Z,84.70
2022-10-04T09:29:56.047Z,83.50
2022-10-04T09:33:14.512Z,83.20
2022-10-04T09:36:32.593Z,83.70
2022-10-04T09:40:01.792Z,85.00
2022-10-04T09:43:38.652Z,85.40
2022-10-04T09:47:16.910Z,85.60
2022-10-04T09:50:45.691Z,85.50
2022-10-04T09:53:48.043Z,85.00
2022-10-04T09:57:01.337Z,85.30
2022-10-04T10:00:09.796Z,83.70
2022-10-04T10:03:51.519Z,82.20
2022-10-04T10:07:10.870Z,80.40
2022-10-04T10:10:31.470Z,79.80
2022-10-04T10:13:58.131Z,82.90
2022-10-04T10:17:02.663Z,81.00
2022-10-04T10:20:31.513Z,78.90
2022-10-04T10:23:47.093Z,76.50
2022-10-04T10:27:03.661Z,74.80
2022-10-04T10:30:21.622Z,73.10
2022-10-04T10:33:47.073Z,72.40
2022-10-04T10:37:06.265Z,71.30
2022-10-04T10:40:33.576Z,70.40
2022-10-04T10:43:46.517Z,69.50
2022-10-04T10:46:55.155Z,68.50
2022-10-04T10:50:08.478Z,68.40
2022-10-04T10:53:41.451Z,68.30
2022-10-04T10:56:46.907Z,68.70
2022-10-04T11:00:20.637Z,68.80
2022-10-04T11:03:32.707Z,68.50
2022-10-04T11:07:02.906Z,68.90
2022-10-04T11:10:52.003Z,68.90
2022-10-04T11:14:33.672Z,68.80
2022-10-04T11:18:20.438Z,67.90
2022-10-04T11:21:44.807Z,67.20
2022-10-04T11:25:15.392Z,66.40
2022-10-04T11:28:16.748Z,65.50
2022-10-04T11:31:59.006Z,65.40
2022-10-04T11:35:44.331Z,64.50
2022-10-04T11:39:04.186Z,64.00
2022-10-04T11:42:02.325Z,64.10
2022-10-04T11:45:38.485Z,64.40
2022-10-04T11:48:41.463Z,64.10
2022-10-04T11:52:31.776Z,64.10
2022-10-04T11:55:54.192Z,63.80
2022-10-04T11:59:04.397Z,63.40
2022-10-04T12:02:35.202Z,63.60
2022-10-04T12:06:20.353Z,63.50
2022-10-04T12:09:23.022Z,63.30
2022-10-04T12:12:40.581Z,63.40
2022-10-04T12:16:07.612Z,62.70
2022-10-04T12:20:02.497Z,62.20
2022-10-04T12:23:20.982Z,61.90
2022-10-04T12:26:44.231Z,61.90
2022-10-04T12:30:12.653Z,61.50
2022-10-04T12:33:22.233Z,61.20
2022-10-04T12:36:29.959Z,61.70
2022-10-04T12:39:39.302Z,61.30
2022-10-04T12:42:42.963Z,61.00
2022-10-04T12:46:06.541Z,60.40
2022-10-04T12:49:10.185Z,59.90
2022-10-04T12:52:11.729Z,60.00
2022-10-04T12:55:11.510Z,60.00
2022-10-04T12:58:05.653Z,60.00
2022-10-04T13:01:02.421Z,59.90
2022-10-04T13:04:16.399Z,59.80
2022-10-04T13:07:30.717Z,59.10
2022-10-04T13:10:40.001Z,59.20
2022-10-04T13:14:09.644Z,59.20
2022-10-04T13:17:33.584Z,59.00
2022-10-04T13:20:35.617Z,58.90
2022-10-04T13:23:43.403Z,58.70
2022-10-04T13:26:44.222Z,58.80
2022-10-04T13:29:40.206Z,59.00
2022-10-04T13:32:34.805Z,59.10
2022-10-04T13:35:36.510Z,59.10
2022-10-04T13:38:59.604Z,59.10
2022-10-04T13:42:17.916Z,58.80
2022-10-04T13:45:29.218Z,58.80
2022-10-04T13:48:55.499Z,58.90
2022-10-04T13:52:40.416Z,58.80
2022-10-04T13:55:56.088Z,58.90
2022-10-04T13:58:56.773Z,58.90
2022-10-04T14:02:27.662Z,59.00
2022-10-04T14:06:14.884Z,59.10
2022-10-04T14:09:35.774Z,59.10
2022-10-04T14:13:27.093Z,59.30
2022-10-04T14:17:13.887Z,59.30
2022-10-04T14:20:33.568Z,59.50
2022-10-04T14:23:51.266Z,59.60
2022-10-04T14:27:44.133Z,59.60
2022-10-04T14:30:48.507Z,59.60
2022-10-04T14:34:14.546Z,59.70
2022-10-04T14:37:42.965Z,59.50
2022-10-04T14:40:51.703Z,59.60
2022-10-04T14:44:16.568Z,59.60
2022-10-04T14:47:34.620Z,59.60
2022-10-04T14:50:33.060Z,59.60
2022-10-04T14:53:32.667Z,59.70
2022-10-04T14:56:51.129Z,59.70
2022-10-04T15:00:12.906Z,59.70
2022-10-04T15:03:25.630Z,59.60
2022-10-04T15:06:29.612Z,59.70
2022-10-04T15:09:50.829Z,59.70
2022-10-04T15:13:10.923Z,59.80
2022-10-04T15:16:15.781Z,59.70
2022-10-04T15:19:12.682Z,59.80
2022-10-04T15:22:12.823Z,59.70
2022-10-04T15:25:02.321Z,59.70
2022-10-04T15:27:58.778Z,59.80
2022-10-04T15:30:58.963Z,59.80
2022-10-04T15:34:01.197Z,59.90
2022-10-04T15:37:25.424Z,59.90
2022-10-04T15:40:29.993Z,60.00
2022-10-04T15:43:36.076Z,60.00
2022-10-04T15:46:39.762Z,59.90
2022-10-04T15:49:53.897Z,60.00
2022-10-04T15:53:20.481Z,60.00
2022-10-04T15:56:35.323Z,60.00
2022-10-04T15:59:44.343Z,60.10
2022-10-04T16:03:03.938Z,60.20
2022-10-04T16:06:03.334Z,60.20
2022-10-04T16:09:23.668Z,60.10
2022-10-04T16:12:24.418Z,60.20
2022-10-04T16:15:20.833Z,60.20
2022-10-04T16:18:38.585Z,60.20
2022-10-04T16:21:34.805Z,60.50
2022-10-04T16:24:51.269Z,60.40
2022-10-04T16:28:05.784Z,60.60
2022-10-04T16:31:22.576Z,60.60
2022-10-04T16:34:28.144Z,60.70
2022-10-04T16:37:29.703Z,60.60
2022-10-04T16:40:34.433Z,60.40
2022-10-04T16:43:29.788Z,60.60
2022-10-04T16:46:30.643Z,60.60
2022-10-04T16:49:27.417Z,60.50
2022-10-04T16:52:46.087Z,60.60
2022-10-04T16:55:53.290Z,60.70
2022-10-04T16:58:53.726Z,60.70
2022-10-04T17:02:29.840Z,60.60
2022-10-04T17:05:37.950Z,60.80
2022-10-04T17:08:47.672Z,60.50
2022-10-04T17:11:46.494Z,60.40
2022-10-04T17:15:09.243Z,60.60
2022-10-04T17:18:14.244Z,60.90
2022-10-04T17:21:11.921Z,60.70
2022-10-04T17:24:20.088Z,60.80
2022-10-04T17:27:48.428Z,61.20
2022-10-04T17:30:50.367Z,61.80
2022-10-04T17:34:04.471Z,61.60
2022-10-04T17:36:57.603Z,61.90
2022-10-04T17:39:54.550Z,61.50
2022-10-04T17:42:59.930Z,61.60
2022-10-04T17:46:02.226Z,61.90
2022-10-04T17:49:17.940Z,61.90
2022-10-04T17:52:36.071Z,61.80
2022-10-04T17:55:34.025Z,62.70
2022-10-04T17:58:31.336Z,62.00
2022-10-04T18:01:31.011Z,62.20
2022-10-04T18:04:26.398Z,62.50
2022-10-04T18:07:22.017Z,62.30
2022-10-04T18:10:26.343Z,62.50
2022-10-04T18:13:28.545Z,62.90
2022-10-04T18:16:25.854Z,62.80
2022-10-04T18:19:41.573Z,62.80
2022-10-04T18:22:47.629Z,63.40
2022-10-04T18:25:37.149Z,63.20
2022-10-04T18:28:28.167Z,62.60
2022-10-04T18:31:39.507Z,62.80
2022-10-04T18:34:32.112Z,63.50
2022-10-04T18:37:31.033Z,62.80
2022-10-04T18:40:23.519Z,62.90
2022-10-04T18:43:30.893Z,62.90
2022-10-04T18:46:22.755Z,63.50
2022-10-04T18:49:18.426Z,62.90
2022-10-04T18:52:30.014Z,63.10
2022-10-04T18:55:37.620Z,63.50
2022-10-04T18:59:03.378Z,63.40
2022-10-04T19:02:09.229Z,63.30
2022-10-04T19:05:08.833Z,63.30
2022-10-04T19:08:17.913Z,63.20
2022-10-04T19:11:14.197Z,63.30
2022-10-04T19:14:19.658Z,63.00
2022-10-04T19:17:22.456Z,63.30
2022-10-04T19:20:19.105Z,63.20
2022-10-04T19:23:25.462Z,63.10
2022-10-04T19:26:32.119Z,63.30
2022-10-04T19:29:39.725Z,64.00
2022-10-04T19:32:43.355Z,63.30
2022-10-04T19:36:22.006Z,63.20
2022-10-04T19:39:30.620Z,63.80
2022-10-04T19:42:29.486Z,63.30
2022-10-04T19:45:29.407Z,63.20
2022-10-04T19:48:24.564Z,63.20
2022-10-04T19:51:22.608Z,63.20
2022-10-04T19:54:15.999Z,63.30
2022-10-04T19:57:06.866Z,63.30
2022-10-04T19:59:56.264Z,63.20
2022-10-04T20:02:48.942Z,63.30
2022-10-04T20:05:45.098Z,63.60
2022-10-04T20:08:52.620Z,63.70
2022-10-04T20:11:51.976Z,64.10
2022-10-04T20:14:47.082Z,63.90
2022-10-04T20:17:37.833Z,63.80
2022-10-04T20:21:05.759Z,63.60
2022-10-04T20:23:57.064Z,64.20
2022-10-04T20:26:55.099Z,63.70
2022-10-04T20:30:14.289Z,63.80
2022-10-04T20:33:03.831Z,64.40
2022-10-04T20:36:03.622Z,63.80
2022-10-04T20:38:59.703Z,64.30
2022-10-04T20:42:24.092Z,64.00
2022-10-04T20:45:26.687Z,64.80
2022-10-04T20:48:21.283Z,64.30
2022-10-04T20:51:11.790Z,64.00
2022-10-04T20:54:03.413Z,64.00
2022-10-04T20:56:55.493Z,64.10
2022-10-04T20:59:44.817Z,64.20
2022-10-04T21:02:34.520Z,64.30
2022-10-04T21:05:25.762Z,64.20
2022-10-04T21:08:27.779Z,64.40
2022-10-04T21:11:21.744Z,64.90
2022-10-04T21:14:24.700Z,64.50
2022-10-04T21:17:37.375Z,65.00
2022-10-04T21:20:48.611Z,65.10
2022-10-04T21:23:37.928Z,65.10
2022-10-04T21:26:28.592Z,64.50
2022-10-04T21:29:17.984Z,64.70
2022-10-04T21:32:07.875Z,64.60
2022-10-04T21:34:57.240Z,64.70
2022-10-04T21:37:46.900Z,64.70
2022-10-04T21:40:36.340Z,64.70
2022-10-04T21:43:27.217Z,64.70
2022-10-04T21:46:20.216Z,64.90
2022-10-04T21:49:10.000Z,64.90
2022-10-04T21:51:59.294Z,65.10
2022-10-04T21:54:48.678Z,65.10
2022-10-04T21:57:38.052Z,65.20
2022-10-04T22:00:28.964Z,65.10
2022-10-04T22:03:18.316Z,65.20
2022-10-04T22:06:07.880Z,65.30
2022-10-04T22:08:57.318Z,65.30
2022-10-04T22:11:46.727Z,65.20
2022-10-04T22:14:36.150Z,65.30
2022-10-04T22:17:26.953Z,65.50
2022-10-04T22:20:16.542Z,65.60
2022-10-04T22:23:12.592Z,65.70
2022-10-04T22:26:03.246Z,65.80
2022-10-04T22:28:54.815Z,65.70
2022-10-04T22:31:49.484Z,65.90
2022-10-04T22:34:40.326Z,65.90
2022-10-04T22:37:31.183Z,66.00
2022-10-04T22:40:23.446Z,65.90
2022-10-04T22:43:16.424Z,66.00
2022-10-04T22:46:05.964Z,66.20
2022-10-04T22:48:55.516Z,66.10
2022-10-04T22:51:49.350Z,66.30
2022-10-04T22:54:41.765Z,66.30
2022-10-04T22:57:32.086Z,66.30
2022-10-04T23:00:21.514Z,66.30
2022-10-04T23:03:25.357Z,66.30
2022-10-04T23:06:15.357Z,66.40
2022-10-04T23:09:06.224Z,66.30
2022-10-04T23:11:55.604Z,66.30
2022-10-04T23:14:45.312Z,66.30
2022-10-04T23:17:37.443Z,66.30
2022-10-04T23:20:28.822Z,66.30
2022-10-04T23:23:21.502Z,66.10
2022-10-04T23:26:22.443Z,66.10
2022-10-04T23:29:19.709Z,66.20
2022-10-04T23:32:12.154Z,66.20
2022-10-04T23:35:05.537Z,66.10
2022-10-04T23:37:56.116Z,66.00
2022-10-04T23:40:45.618Z,66.00
2022-10-04T23:43:36.460Z,66.10
2022-10-04T23:46:26.258Z,66.10
2022-10-04T23:49:19.056Z,66.10
2022-10-04T23:52:18.956Z,66.10
2022-10-04T23:55:17.890Z,66.20
2022-10-04T23:58:16.655Z,66.20
